Portada
METAR-TAF:

METAR-TAF

Aeropuertos :

Aeropuerto de Aviñón-Provenza

Aviñón, Francia

latitud: 43-54-26N, longitud: 004-54-07E, altitud: 38 m

Observación

El informe se hizo hace 22 minutos, a las 19:00 UTC
Viento 10 kt del sureste
Temperatura 19°C
Humedad 68%
Presión 1020 hPa
Visibilidad 10 km o más
Escasas nubes a una altura de 2800 ft
Cielo cubierto a una altura de 7200 ft

METAR: LFMV 201900Z AUTO 13010KT 9999 FEW028 OVC072 19/13 Q1020 NOSIG

Hora: 21:22 (19:22 UTC)

Pronóstico

El informe se hizo hace 5 horas y 22 minutos, a las 14:00 UTC
Pronóstico válido del 20 a las 15 UTC al 21 a las 15 UTC
Viento 10 kt del sur-sureste
Visibilidad 10 km o más
Cielo cubierto a una altura de 5000 ft
Temporalmente
del 21 a las 01 UTC al 21 a las 06 UTC
Visibilidad: 4000 m
lluvia
Evolucionando progresivamente
del 21 a las 06 UTC al 21 a las 07 UTC
Viento 10 kt del noroeste

TAF: LFMV 201400Z 2015/2115 16010KT 9999 OVC050 TEMPO 2101/2106 4000 RA BECMG 2106/2107 32010KT

Observaciones y pronósticos meteorológicos de más de 4000 aeropuertos (mensajes METAR y TAF).

Los puntos amarillos y rojos representan las estaciones disponibles.

Ponga el ratón en el punto deseado para ver el nombre de la estación.

Haga clic para ver las observaciones y los pronósticos meteorológicos.

Para cambiar el mapa : haga clic en los botones verdes con una cruz de color negro para hacer un zoom, en el botón verde con un guión para alejar o en las flechas verdes para mapas adyacentes.


METAR-TAF: